createdAt,value
2023-02-23T00:00:28.544Z,15.00
2023-02-23T00:03:16.490Z,16.20
2023-02-23T00:06:04.798Z,18.43
2023-02-23T00:08:52.395Z,15.60
2023-02-23T00:11:39.796Z,14.77
2023-02-23T00:14:28.705Z,16.77
2023-02-23T00:17:17.522Z,15.77
2023-02-23T00:20:12.094Z,15.20
2023-02-23T00:22:59.596Z,15.70
2023-02-23T00:25:47.285Z,16.27
2023-02-23T00:28:34.701Z,17.17
2023-02-23T00:31:26.300Z,17.80
2023-02-23T00:34:14.812Z,19.53
2023-02-23T00:37:02.726Z,17.37
2023-02-23T00:39:50.921Z,16.53
2023-02-23T00:42:39.037Z,18.00
2023-02-23T00:45:26.777Z,15.87
2023-02-23T00:48:14.999Z,17.17
2023-02-23T00:51:04.132Z,13.60
2023-02-23T00:53:55.105Z,19.00
2023-02-23T00:56:43.117Z,16.67
2023-02-23T00:59:30.568Z,19.33
2023-02-23T01:02:18.032Z,16.37
2023-02-23T01:05:06.044Z,18.47
2023-02-23T01:07:53.944Z,15.00
2023-02-23T01:10:43.458Z,17.37
2023-02-23T01:13:31.356Z,15.80
2023-02-23T01:16:20.635Z,15.37
2023-02-23T01:19:08.133Z,16.27
2023-02-23T01:21:56.086Z,16.13
2023-02-23T01:24:43.595Z,20.57
2023-02-23T01:27:31.500Z,15.27
2023-02-23T01:30:18.793Z,17.00
2023-02-23T01:33:06.794Z,16.60
2023-02-23T01:35:58.082Z,17.20
2023-02-23T01:38:45.989Z,19.60
2023-02-23T01:41:33.542Z,20.47
2023-02-23T01:44:21.385Z,17.57
2023-02-23T01:47:08.812Z,19.67
2023-02-23T01:49:56.316Z,16.77
2023-02-23T01:52:47.369Z,21.87
2023-02-23T01:55:35.506Z,18.90
2023-02-23T01:58:24.002Z,18.97
2023-02-23T02:01:12.483Z,19.77
2023-02-23T02:04:06.735Z,17.10
2023-02-23T02:06:57.250Z,15.77
2023-02-23T02:10:05.560Z,16.60
2023-02-23T02:12:55.722Z,20.27
2023-02-23T02:16:10.103Z,21.00
2023-02-23T02:18:57.483Z,21.97
2023-02-23T02:21:48.499Z,20.10
2023-02-23T02:24:55.180Z,24.53
2023-02-23T02:27:57.386Z,20.23
2023-02-23T02:31:03.687Z,19.27
2023-02-23T02:33:58.343Z,17.70
2023-02-23T02:36:55.274Z,17.13
2023-02-23T02:39:46.683Z,19.37
2023-02-23T02:42:38.088Z,21.33
2023-02-23T02:45:28.674Z,22.20
2023-02-23T02:48:16.991Z,20.67
2023-02-23T02:51:18.424Z,19.27
2023-02-23T02:54:21.500Z,24.50
2023-02-23T02:57:10.291Z,19.63
2023-02-23T03:00:17.491Z,19.40
2023-02-23T03:03:25.055Z,18.40
2023-02-23T03:06:31.070Z,21.53
2023-02-23T03:09:51.455Z,20.30
2023-02-23T03:13:04.071Z,19.70
2023-02-23T03:16:10.009Z,22.17
2023-02-23T03:19:16.558Z,20.07
2023-02-23T03:22:29.697Z,21.67
2023-02-23T03:25:36.072Z,22.47
2023-02-23T03:28:49.168Z,25.33
2023-02-23T03:32:14.795Z,21.63
2023-02-23T03:35:25.796Z,19.77
2023-02-23T03:38:47.057Z,22.67
2023-02-23T03:41:54.172Z,24.10
2023-02-23T03:45:01.817Z,19.80
2023-02-23T03:48:08.751Z,20.87
2023-02-23T03:51:16.223Z,24.87
2023-02-23T03:54:31.202Z,19.77
2023-02-23T03:57:40.079Z,22.60
2023-02-23T04:00:54.516Z,23.77
2023-02-23T04:04:02.047Z,24.97
2023-02-23T04:07:08.484Z,18.47
2023-02-23T04:10:15.310Z,20.80
2023-02-23T04:13:16.823Z,21.80
2023-02-23T04:16:06.241Z,17.17
2023-02-23T04:18:54.411Z,19.17
2023-02-23T04:21:41.827Z,22.33
2023-02-23T04:24:29.729Z,21.77
2023-02-23T04:27:18.236Z,17.60
2023-02-23T04:30:06.160Z,23.57
2023-02-23T04:32:54.081Z,20.80
2023-02-23T04:35:41.702Z,16.47
2023-02-23T04:38:29.187Z,22.17
2023-02-23T04:41:16.783Z,20.63
2023-02-23T04:44:04.976Z,18.37
2023-02-23T04:46:52.363Z,17.47
2023-02-23T04:49:40.261Z,18.23
2023-02-23T04:52:27.744Z,17.77
2023-02-23T04:55:18.447Z,21.37
2023-02-23T04:58:05.934Z,16.20
2023-02-23T05:00:54.296Z,21.60
2023-02-23T05:03:41.748Z,13.80
2023-02-23T05:06:29.788Z,18.00
2023-02-23T05:09:17.758Z,18.80
2023-02-23T05:12:05.355Z,17.43
2023-02-23T05:14:52.842Z,17.87
2023-02-23T05:17:44.215Z,18.57
2023-02-23T05:20:31.623Z,16.97
2023-02-23T05:23:20.357Z,20.00
2023-02-23T05:26:09.729Z,18.40
2023-02-23T05:28:57.743Z,18.97
2023-02-23T05:31:45.844Z,18.80
2023-02-23T05:34:33.752Z,16.83
2023-02-23T05:37:21.162Z,19.17
2023-02-23T05:40:09.534Z,16.57
2023-02-23T05:42:59.468Z,16.43
2023-02-23T05:45:47.679Z,18.80
2023-02-23T05:48:35.489Z,17.57
2023-02-23T05:51:23.416Z,18.20
2023-02-23T05:54:11.896Z,17.53
2023-02-23T05:57:01.682Z,18.20
2023-02-23T05:59:49.778Z,20.33
2023-02-23T06:02:37.410Z,17.30
2023-02-23T06:05:25.319Z,18.60
2023-02-23T06:08:13.289Z,18.63
2023-02-23T06:11:01.192Z,17.40
2023-02-23T06:13:48.593Z,18.40
2023-02-23T06:16:36.573Z,17.87
2023-02-23T06:19:24.488Z,21.73
2023-02-23T06:22:12.458Z,20.33
2023-02-23T06:25:00.405Z,19.33
2023-02-23T06:27:48.381Z,17.60
2023-02-23T06:30:36.636Z,22.17
2023-02-23T06:33:24.303Z,20.03
2023-02-23T06:36:12.239Z,17.80
2023-02-23T06:39:00.140Z,16.73
2023-02-23T06:41:48.078Z,17.13
2023-02-23T06:44:36.206Z,18.77
2023-02-23T06:47:24.189Z,18.90
2023-02-23T06:50:12.677Z,16.97
2023-02-23T06:53:00.430Z,17.57
2023-02-23T06:55:48.338Z,16.57
2023-02-23T06:58:35.806Z,16.87
2023-02-23T07:01:23.271Z,16.97
2023-02-23T07:04:11.700Z,16.27
2023-02-23T07:06:59.615Z,15.60
2023-02-23T07:09:47.522Z,17.63
2023-02-23T07:12:34.940Z,18.33
2023-02-23T07:15:22.890Z,16.23
2023-02-23T07:18:10.333Z,17.27
2023-02-23T07:20:58.108Z,18.03
2023-02-23T07:23:45.659Z,24.60
2023-02-23T07:26:34.214Z,16.03
2023-02-23T07:29:24.434Z,21.80
2023-02-23T07:32:12.054Z,21.10
2023-02-23T07:35:00.157Z,16.37
2023-02-23T07:37:47.591Z,16.27
2023-02-23T07:40:35.602Z,16.97
2023-02-23T07:43:24.180Z,17.07
2023-02-23T07:46:12.315Z,16.17
2023-02-23T07:49:00.526Z,16.47
2023-02-23T07:51:47.974Z,16.27
2023-02-23T07:54:35.418Z,16.97
2023-02-23T07:57:24.923Z,17.47
2023-02-23T08:00:12.616Z,17.70
2023-02-23T08:03:01.774Z,15.43
2023-02-23T08:05:49.693Z,14.13
2023-02-23T08:08:37.609Z,14.10
2023-02-23T08:11:25.045Z,14.83
2023-02-23T08:14:13.491Z,13.57
2023-02-23T08:17:02.516Z,12.07
2023-02-23T08:19:50.657Z,15.87
2023-02-23T08:22:48.756Z,19.20
2023-02-23T08:25:36.960Z,16.13
2023-02-23T08:28:25.150Z,20.10
2023-02-23T08:31:19.354Z,19.43
2023-02-23T08:34:07.306Z,12.73
2023-02-23T08:36:55.459Z,15.53
2023-02-23T08:39:44.106Z,15.60
2023-02-23T08:42:31.542Z,17.83
2023-02-23T08:45:19.740Z,16.17
2023-02-23T08:48:07.816Z,14.37
2023-02-23T08:50:58.975Z,15.43
2023-02-23T08:53:46.268Z,14.83
2023-02-23T08:56:34.217Z,12.83
2023-02-23T08:59:22.143Z,14.37
2023-02-23T09:02:12.677Z,14.17
2023-02-23T09:05:00.709Z,16.33
2023-02-23T09:07:49.108Z,16.70
2023-02-23T09:10:36.550Z,17.53
2023-02-23T09:13:24.026Z,18.40
2023-02-23T09:16:11.589Z,12.13
2023-02-23T09:19:01.340Z,14.97
2023-02-23T09:21:49.234Z,12.10
2023-02-23T09:24:36.698Z,13.87
2023-02-23T09:27:24.156Z,12.07
2023-02-23T09:30:15.260Z,14.00
2023-02-23T09:33:03.199Z,10.40
2023-02-23T09:35:51.146Z,12.37
2023-02-23T09:38:39.083Z,12.73
2023-02-23T09:41:27.824Z,11.10
2023-02-23T09:44:24.928Z,14.63
2023-02-23T09:47:32.630Z,11.93
2023-02-23T09:50:29.446Z,12.97
2023-02-23T09:53:35.507Z,15.43
2023-02-23T09:56:25.986Z,13.97
2023-02-23T09:59:18.458Z,9.40
2023-02-23T10:02:08.919Z,9.03
2023-02-23T10:05:03.633Z,9.27
2023-02-23T10:08:01.848Z,12.07
2023-02-23T10:10:58.128Z,15.33
2023-02-23T10:13:51.794Z,8.33
2023-02-23T10:16:39.186Z,11.20
2023-02-23T10:19:32.664Z,10.83
2023-02-23T10:22:21.400Z,10.87
2023-02-23T10:25:13.442Z,8.30
2023-02-23T10:28:01.361Z,7.57
2023-02-23T10:30:50.832Z,6.57
2023-02-23T10:33:40.344Z,6.97
2023-02-23T10:36:38.248Z,9.37
2023-02-23T10:39:26.594Z,7.40
2023-02-23T10:42:19.855Z,9.17
2023-02-23T10:45:19.176Z,7.50
2023-02-23T10:48:08.532Z,6.83
2023-02-23T10:51:03.238Z,8.57
2023-02-23T10:53:52.837Z,9.83
2023-02-23T10:56:45.223Z,12.23
2023-02-23T10:59:32.882Z,9.43
2023-02-23T11:02:24.541Z,7.93
2023-02-23T11:05:31.800Z,9.70
2023-02-23T11:08:22.752Z,7.60
2023-02-23T11:11:16.936Z,10.10
2023-02-23T11:14:17.035Z,7.33
2023-02-23T11:17:04.480Z,8.03
2023-02-23T11:19:52.036Z,9.97
2023-02-23T11:22:42.137Z,9.80
2023-02-23T11:25:31.077Z,6.50
2023-02-23T11:28:22.952Z,9.17
2023-02-23T11:31:15.999Z,13.30
2023-02-23T11:34:04.823Z,9.90
2023-02-23T11:36:59.706Z,8.70
2023-02-23T11:39:56.200Z,10.43
2023-02-23T11:42:53.892Z,9.95
2023-02-23T11:45:52.773Z,12.00
2023-02-23T11:49:19.419Z,6.30
2023-02-23T11:52:13.525Z,7.47
2023-02-23T11:55:02.249Z,8.03
2023-02-23T11:57:50.292Z,8.70
2023-02-23T12:00:38.021Z,9.90
2023-02-23T12:03:27.514Z,9.52
2023-02-23T12:06:30.020Z,10.23
2023-02-23T12:09:24.080Z,7.20
2023-02-23T12:12:12.994Z,6.78
2023-02-23T12:15:09.796Z,7.68
2023-02-23T12:18:01.832Z,6.38
2023-02-23T12:20:54.681Z,7.95
2023-02-23T12:23:45.104Z,5.43
2023-02-23T12:26:36.248Z,6.90
2023-02-23T12:29:23.638Z,5.55
2023-02-23T12:32:14.326Z,5.85
2023-02-23T12:35:11.800Z,5.57
2023-02-23T12:38:06.605Z,5.22
2023-02-23T12:41:00.783Z,6.35
2023-02-23T12:43:51.975Z,8.25
2023-02-23T12:46:47.469Z,8.02
2023-02-23T12:49:37.754Z,6.13
2023-02-23T12:52:28.276Z,7.13
2023-02-23T12:55:27.635Z,5.20
2023-02-23T12:58:23.248Z,4.63
2023-02-23T13:01:32.204Z,5.50
2023-02-23T13:04:28.175Z,5.00
2023-02-23T13:07:34.955Z,4.60
2023-02-23T13:10:22.890Z,8.63
2023-02-23T13:13:29.147Z,4.30
2023-02-23T13:16:23.106Z,4.60
2023-02-23T13:19:14.007Z,5.73
2023-02-23T13:22:07.410Z,4.90
2023-02-23T13:24:56.208Z,3.92
2023-02-23T13:27:46.700Z,3.30
2023-02-23T13:30:36.487Z,3.45
2023-02-23T13:33:41.934Z,4.50
2023-02-23T13:36:32.285Z,3.25
2023-02-23T13:39:35.560Z,3.80
2023-02-23T13:42:42.048Z,6.13
2023-02-23T13:45:48.750Z,2.67
2023-02-23T13:48:55.995Z,2.47
2023-02-23T13:51:52.253Z,3.42
2023-02-23T13:54:52.218Z,5.22
2023-02-23T13:57:40.718Z,1.85
2023-02-23T14:00:28.642Z,3.03
2023-02-23T14:03:28.401Z,3.13
2023-02-23T14:06:16.472Z,3.65
2023-02-23T14:09:22.052Z,3.55
2023-02-23T14:12:19.447Z,2.72
2023-02-23T14:15:25.936Z,2.38
2023-02-23T14:18:19.521Z,2.40
2023-02-23T14:21:26.418Z,3.17
2023-02-23T14:24:19.159Z,5.45
2023-02-23T14:27:38.390Z,2.63
2023-02-23T14:30:29.940Z,4.22
2023-02-23T14:33:36.222Z,4.35
2023-02-23T14:36:26.972Z,4.20
2023-02-23T14:39:20.009Z,5.93
2023-02-23T14:42:07.725Z,3.80
2023-02-23T14:44:56.134Z,6.78
2023-02-23T14:47:46.326Z,3.88
2023-02-23T14:50:35.296Z,3.17
2023-02-23T14:53:24.372Z,4.70
2023-02-23T14:56:19.372Z,6.43
2023-02-23T14:59:08.302Z,4.73
2023-02-23T15:01:57.033Z,2.93
2023-02-23T15:04:45.035Z,4.77
2023-02-23T15:07:34.954Z,4.53
2023-02-23T15:10:25.605Z,4.30
2023-02-23T15:13:18.240Z,6.87
2023-02-23T15:16:07.784Z,4.13
2023-02-23T15:19:28.989Z,5.17
2023-02-23T15:22:22.539Z,8.33
2023-02-23T15:25:16.021Z,4.83
2023-02-23T15:28:21.953Z,6.23
2023-02-23T15:31:13.400Z,6.13
2023-02-23T15:34:01.284Z,4.30
2023-02-23T15:36:59.551Z,5.40
2023-02-23T15:39:47.455Z,4.13
2023-02-23T15:42:40.273Z,3.00
2023-02-23T15:45:31.281Z,4.03
2023-02-23T15:48:21.375Z,2.30
2023-02-23T15:51:20.971Z,6.57
2023-02-23T15:54:13.827Z,2.07
2023-02-23T15:57:07.669Z,5.30
2023-02-23T15:59:58.263Z,5.43
2023-02-23T16:02:46.313Z,4.67
2023-02-23T16:05:41.840Z,4.27
2023-02-23T16:08:35.935Z,3.77
2023-02-23T16:11:24.346Z,3.93
2023-02-23T16:14:17.133Z,5.13
2023-02-23T16:17:11.438Z,3.13
2023-02-23T16:20:09.612Z,3.23
2023-02-23T16:22:58.120Z,4.47
2023-02-23T16:25:46.146Z,7.93
2023-02-23T16:28:34.501Z,4.80
2023-02-23T16:31:28.121Z,5.23
2023-02-23T16:34:43.077Z,4.63
2023-02-23T16:37:31.061Z,4.80
2023-02-23T16:40:19.246Z,5.60
2023-02-23T16:43:06.743Z,7.63
2023-02-23T16:45:54.724Z,4.37
2023-02-23T16:48:42.178Z,6.80
2023-02-23T16:51:30.422Z,5.53
2023-02-23T16:54:18.378Z,9.67
2023-02-23T16:57:07.610Z,6.30
2023-02-23T16:59:55.275Z,7.13
2023-02-23T17:02:42.801Z,11.90
2023-02-23T17:05:30.404Z,11.20
2023-02-23T17:08:18.391Z,9.53
2023-02-23T17:11:06.596Z,6.87
2023-02-23T17:13:54.622Z,8.60
2023-02-23T17:16:42.151Z,9.63
2023-02-23T17:19:30.100Z,7.10
2023-02-23T17:22:17.617Z,9.63
2023-02-23T17:25:06.314Z,15.57
2023-02-23T17:27:57.973Z,9.03
2023-02-23T17:30:45.747Z,9.17
2023-02-23T17:33:34.247Z,8.47
2023-02-23T17:36:23.790Z,8.77
2023-02-23T17:39:14.629Z,13.43
2023-02-23T17:42:02.111Z,11.00
2023-02-23T17:44:50.014Z,9.00
2023-02-23T17:47:43.162Z,11.37
2023-02-23T17:50:31.140Z,11.07
2023-02-23T17:53:18.666Z,11.53
2023-02-23T17:56:06.636Z,9.17
2023-02-23T17:58:54.576Z,18.77
2023-02-23T18:01:42.160Z,15.70
2023-02-23T18:04:29.960Z,31.60
2023-02-23T18:07:18.285Z,19.43
2023-02-23T18:10:06.533Z,20.47
2023-02-23T18:12:55.122Z,28.47
2023-02-23T18:15:42.573Z,27.77
2023-02-23T18:18:30.516Z,34.10
2023-02-23T18:21:19.728Z,24.90
2023-02-23T18:24:07.473Z,22.10
2023-02-23T18:27:00.508Z,25.00
2023-02-23T18:29:48.040Z,14.70
2023-02-23T18:32:35.656Z,18.97
2023-02-23T18:35:22.945Z,13.57
2023-02-23T18:38:11.672Z,15.23
2023-02-23T18:40:59.461Z,14.93
2023-02-23T18:43:47.308Z,16.00
2023-02-23T18:46:35.389Z,14.87
2023-02-23T18:49:24.944Z,16.33
2023-02-23T18:52:12.712Z,14.20
2023-02-23T18:55:00.273Z,14.10
2023-02-23T18:57:48.330Z,17.83
2023-02-23T19:00:40.505Z,15.27
2023-02-23T19:03:27.900Z,32.23
2023-02-23T19:06:16.591Z,34.67
2023-02-23T19:09:07.811Z,29.70
2023-02-23T19:11:55.433Z,27.67
2023-02-23T19:14:49.668Z,23.90
2023-02-23T19:17:37.432Z,24.83
2023-02-23T19:20:27.547Z,23.77
2023-02-23T19:23:15.048Z,20.50
2023-02-23T19:26:03.419Z,14.80
2023-02-23T19:28:50.893Z,12.97
2023-02-23T19:31:38.647Z,17.13
2023-02-23T19:34:27.100Z,13.70
2023-02-23T19:37:14.612Z,13.70
2023-02-23T19:40:03.568Z,15.93
2023-02-23T19:42:53.424Z,16.13
2023-02-23T19:45:46.187Z,23.43
2023-02-23T19:48:34.507Z,12.60
2023-02-23T19:51:22.449Z,14.50
2023-02-23T19:54:11.732Z,15.03
2023-02-23T19:56:59.607Z,15.67
2023-02-23T19:59:47.523Z,11.23
2023-02-23T20:02:39.695Z,14.83
2023-02-23T20:05:27.904Z,13.27
2023-02-23T20:08:19.679Z,9.70
2023-02-23T20:11:08.063Z,17.60
2023-02-23T20:13:57.856Z,12.60
2023-02-23T20:16:45.365Z,13.03
2023-02-23T20:19:32.830Z,16.97
2023-02-23T20:22:20.836Z,12.00
2023-02-23T20:25:12.940Z,11.27
2023-02-23T20:28:00.168Z,13.37
2023-02-23T20:30:48.300Z,9.70
2023-02-23T20:33:35.692Z,9.93
2023-02-23T20:36:23.939Z,9.17
2023-02-23T20:39:11.861Z,9.63
2023-02-23T20:41:59.427Z,10.27
2023-02-23T20:44:46.831Z,9.17
2023-02-23T20:47:34.699Z,13.10
2023-02-23T20:50:23.602Z,9.80
2023-02-23T20:53:11.361Z,9.27
2023-02-23T20:55:58.830Z,11.07
2023-02-23T20:58:46.405Z,10.50
2023-02-23T21:01:34.014Z,8.47
2023-02-23T21:04:21.950Z,5.93
2023-02-23T21:07:09.749Z,10.27
2023-02-23T21:10:00.233Z,8.70
2023-02-23T21:12:48.113Z,9.03
2023-02-23T21:15:35.657Z,9.10
2023-02-23T21:18:23.623Z,9.87
2023-02-23T21:21:12.104Z,7.77
2023-02-23T21:24:00.034Z,7.97
2023-02-23T21:26:47.910Z,13.00
2023-02-23T21:29:35.877Z,7.50
2023-02-23T21:32:23.945Z,10.20
2023-02-23T21:35:12.092Z,6.80
2023-02-23T21:37:59.524Z,9.20
2023-02-23T21:40:46.926Z,8.07
2023-02-23T21:43:37.265Z,8.00
2023-02-23T21:46:25.755Z,7.60
2023-02-23T21:49:13.155Z,8.73
2023-02-23T21:52:01.121Z,10.93
2023-02-23T21:54:51.724Z,12.20
2023-02-23T21:57:39.638Z,6.03
2023-02-23T22:00:28.017Z,8.70
2023-02-23T22:03:15.970Z,7.73
2023-02-23T22:06:03.801Z,6.53
2023-02-23T22:08:51.716Z,7.87
2023-02-23T22:11:40.252Z,9.57
2023-02-23T22:14:28.139Z,7.17
2023-02-23T22:17:18.845Z,8.80
2023-02-23T22:20:07.800Z,4.90
2023-02-23T22:22:55.078Z,9.13
2023-02-23T22:25:47.244Z,6.10
2023-02-23T22:28:35.075Z,10.37
2023-02-23T22:31:23.178Z,9.40
2023-02-23T22:34:11.200Z,9.50
2023-02-23T22:36:58.596Z,5.80
2023-02-23T22:39:46.559Z,8.17
2023-02-23T22:42:35.802Z,12.43
2023-02-23T22:45:23.680Z,8.40
2023-02-23T22:48:11.630Z,9.93
2023-02-23T22:50:59.639Z,7.03
2023-02-23T22:53:47.541Z,10.23
2023-02-23T22:56:36.398Z,8.83
2023-02-23T22:59:24.391Z,7.00
2023-02-23T23:02:12.711Z,6.60
2023-02-23T23:05:02.239Z,8.90
2023-02-23T23:07:49.739Z,6.40
2023-02-23T23:10:38.234Z,8.57
2023-02-23T23:13:25.611Z,5.17
2023-02-23T23:16:28.865Z,6.57
2023-02-23T23:19:23.835Z,5.67
2023-02-23T23:22:14.935Z,6.60
2023-02-23T23:25:02.344Z,6.37
2023-02-23T23:27:54.685Z,7.17
2023-02-23T23:30:46.354Z,6.60
2023-02-23T23:33:34.510Z,8.73
2023-02-23T23:36:23.837Z,5.70
2023-02-23T23:39:16.141Z,6.70
2023-02-23T23:42:05.818Z,5.63
2023-02-23T23:44:56.815Z,4.90
2023-02-23T23:47:45.591Z,6.97
2023-02-23T23:50:32.984Z,6.43
2023-02-23T23:53:20.901Z,6.37
2023-02-23T23:56:09.085Z,7.23
2023-02-23T23:58:58.259Z,7.07
